sensor_id;sensor_type;location;lat;lon;timestamp;pressure;altitude;pressure_sealevel;temperature;humidity
62895;BME280;49204;44.916;37.998;2022-10-31T00:01:14;101198.70;;;12.96;88.25
62895;BME280;49204;44.916;37.998;2022-10-31T00:03:42;101201.34;;;12.96;88.33
62895;BME280;49204;44.916;37.998;2022-10-31T00:06:10;101191.30;;;12.94;88.51
62895;BME280;49204;44.916;37.998;2022-10-31T00:08:37;101192.14;;;12.94;88.62
62895;BME280;49204;44.916;37.998;2022-10-31T00:11:09;101187.33;;;12.94;89.01
62895;BME280;49204;44.916;37.998;2022-10-31T00:13:37;101188.66;;;12.94;89.06
62895;BME280;49204;44.916;37.998;2022-10-31T00:16:05;101189.59;;;12.93;89.46
62895;BME280;49204;44.916;37.998;2022-10-31T00:18:33;101186.22;;;12.89;89.47
62895;BME280;49204;44.916;37.998;2022-10-31T00:21:01;101175.44;;;12.84;89.70
62895;BME280;49204;44.916;37.998;2022-10-31T00:23:29;101164.58;;;12.80;89.83
62895;BME280;49204;44.916;37.998;2022-10-31T00:26:05;101153.27;;;12.76;89.95
62895;BME280;49204;44.916;37.998;2022-10-31T00:28:29;101153.86;;;12.72;90.24
62895;BME280;49204;44.916;37.998;2022-10-31T00:30:58;101151.89;;;12.67;90.76
62895;BME280;49204;44.916;37.998;2022-10-31T00:33:26;101150.22;;;12.65;90.90
62895;BME280;49204;44.916;37.998;2022-10-31T00:35:54;101146.78;;;12.63;90.87
62895;BME280;49204;44.916;37.998;2022-10-31T00:38:22;101129.67;;;12.61;91.18
62895;BME280;49204;44.916;37.998;2022-10-31T00:40:50;101121.42;;;12.59;91.40
62895;BME280;49204;44.916;37.998;2022-10-31T00:43:18;101115.28;;;12.58;91.49
62895;BME280;49204;44.916;37.998;2022-10-31T00:45:46;101116.98;;;12.59;91.24
62895;BME280;49204;44.916;37.998;2022-10-31T00:48:14;101109.86;;;12.61;91.13
62895;BME280;49204;44.916;37.998;2022-10-31T00:50:42;101108.95;;;12.62;90.97
62895;BME280;49204;44.916;37.998;2022-10-31T00:53:10;101108.48;;;12.63;90.85
62895;BME280;49204;44.916;37.998;2022-10-31T00:55:38;101108.48;;;12.63;91.03
62895;BME280;49204;44.916;37.998;2022-10-31T00:58:06;101117.20;;;12.65;90.78
62895;BME280;49204;44.916;37.998;2022-10-31T01:00:34;101112.32;;;12.66;90.82
62895;BME280;49204;44.916;37.998;2022-10-31T01:03:02;101112.27;;;12.67;90.67
62895;BME280;49204;44.916;37.998;2022-10-31T01:05:30;101111.32;;;12.68;90.56
62895;BME280;49204;44.916;37.998;2022-10-31T01:07:58;101113.44;;;12.70;90.49
62895;BME280;49204;44.916;37.998;2022-10-31T01:10:26;101110.88;;;12.69;90.60
62895;BME280;49204;44.916;37.998;2022-10-31T01:12:54;101106.04;;;12.68;90.56
62895;BME280;49204;44.916;37.998;2022-10-31T01:15:22;101102.66;;;12.65;90.71
62895;BME280;49204;44.916;37.998;2022-10-31T01:17:50;101106.19;;;12.65;90.72
62895;BME280;49204;44.916;37.998;2022-10-31T01:20:18;101104.45;;;12.64;90.83
62895;BME280;49204;44.916;37.998;2022-10-31T01:22:46;101107.04;;;12.66;90.88
62895;BME280;49204;44.916;37.998;2022-10-31T01:25:13;101109.68;;;12.66;90.71
62895;BME280;49204;44.916;37.998;2022-10-31T01:27:41;101112.27;;;12.67;90.61
62895;BME280;49204;44.916;37.998;2022-10-31T01:30:10;101113.11;;;12.68;90.64
62895;BME280;49204;44.916;37.998;2022-10-31T01:32:38;101107.36;;;12.68;90.59
62895;BME280;49204;44.916;37.998;2022-10-31T01:35:06;101101.55;;;12.70;90.53
62895;BME280;49204;44.916;37.998;2022-10-31T01:37:34;101095.29;;;12.73;90.54
62895;BME280;49204;44.916;37.998;2022-10-31T01:40:02;101093.50;;;12.73;90.58
62895;BME280;49204;44.916;37.998;2022-10-31T01:42:30;101095.61;;;12.75;90.70
62895;BME280;49204;44.916;37.998;2022-10-31T01:44:59;101100.36;;;12.78;90.53
62895;BME280;49204;44.916;37.998;2022-10-31T01:50:00;101100.30;;;12.79;90.08
62895;BME280;49204;44.916;37.998;2022-10-31T01:52:42;101094.17;;;12.79;89.92
62895;BME280;49204;44.916;37.998;2022-10-31T01:55:20;101104.80;;;12.77;89.84
62895;BME280;49204;44.916;37.998;2022-10-31T01:57:48;101104.86;;;12.75;89.62
62895;BME280;49204;44.916;37.998;2022-10-31T02:00:17;101094.76;;;12.75;89.49
62895;BME280;49204;44.916;37.998;2022-10-31T02:02:46;101080.41;;;12.70;89.60
62895;BME280;49204;44.916;37.998;2022-10-31T02:05:17;101087.55;;;12.68;89.68
62895;BME280;49204;44.916;37.998;2022-10-31T02:07:47;101081.41;;;12.68;90.00
62895;BME280;49204;44.916;37.998;2022-10-31T02:10:14;101084.96;;;12.67;89.99
62895;BME280;49204;44.916;37.998;2022-10-31T02:12:44;101083.14;;;12.69;90.19
62895;BME280;49204;44.916;37.998;2022-10-31T02:15:12;101085.84;;;12.67;90.10
62895;BME280;49204;44.916;37.998;2022-10-31T02:17:42;101091.07;;;12.69;89.92
62895;BME280;49204;44.916;37.998;2022-10-31T02:20:23;101094.56;;;12.69;89.75
62895;BME280;49204;44.916;37.998;2022-10-31T02:23:15;101093.77;;;12.67;89.68
62895;BME280;49204;44.916;37.998;2022-10-31T02:33:50;101090.37;;;12.53;89.18
62895;BME280;49204;44.916;37.998;2022-10-31T02:36:24;101083.56;;;12.48;89.11
62895;BME280;49204;44.916;37.998;2022-10-31T02:44:15;101088.64;;;12.42;89.65
62895;BME280;49204;44.916;37.998;2022-10-31T02:46:44;101085.94;;;12.44;89.80
62895;BME280;49204;44.916;37.998;2022-10-31T02:49:17;101096.39;;;12.47;89.72
62895;BME280;49204;44.916;37.998;2022-10-31T02:51:50;101093.59;;;12.50;89.54
62895;BME280;49204;44.916;37.998;2022-10-31T02:54:19;101097.03;;;12.52;89.49
62895;BME280;49204;44.916;37.998;2022-10-31T02:56:50;101096.91;;;12.55;89.42
62895;BME280;49204;44.916;37.998;2022-10-31T02:59:18;101096.27;;;12.60;89.29
62895;BME280;49204;44.916;37.998;2022-10-31T03:02:00;101095.63;;;12.65;89.17
62895;BME280;49204;44.916;37.998;2022-10-31T03:12:39;101083.44;;;12.61;89.12
62895;BME280;49204;44.916;37.998;2022-10-31T03:15:21;101066.66;;;12.52;89.09
62895;BME280;49204;44.916;37.998;2022-10-31T03:18:00;101073.20;;;12.43;89.06
62895;BME280;49204;44.916;37.998;2022-10-31T03:20:33;101075.28;;;12.35;89.28
62895;BME280;49204;44.916;37.998;2022-10-31T03:22:59;101070.33;;;12.27;89.59
62895;BME280;49204;44.916;37.998;2022-10-31T03:25:28;101060.08;;;12.20;89.46
62895;BME280;49204;44.916;37.998;2022-10-31T03:27:56;101052.48;;;12.12;89.36
62895;BME280;49204;44.916;37.998;2022-10-31T03:30:25;101055.34;;;12.06;89.42
62895;BME280;49204;44.916;37.998;2022-10-31T03:32:55;101053.23;;;12.04;89.73
62895;BME280;49204;44.916;37.998;2022-10-31T03:35:24;101052.44;;;12.02;89.69
62895;BME280;49204;44.916;37.998;2022-10-31T03:37:53;101049.91;;;11.98;89.65
62895;BME280;49204;44.916;37.998;2022-10-31T03:40:23;101047.52;;;11.92;89.60
62895;BME280;49204;44.916;37.998;2022-10-31T03:42:59;101041.45;;;11.90;89.51
62895;BME280;49204;44.916;37.998;2022-10-31T03:45:23;101045.05;;;11.88;89.40
62895;BME280;49204;44.916;37.998;2022-10-31T03:47:51;101041.53;;;11.87;89.56
62895;BME280;49204;44.916;37.998;2022-10-31T03:50:20;101045.48;;;11.87;89.79
62895;BME280;49204;44.916;37.998;2022-10-31T03:52:51;101047.58;;;11.91;89.73
62895;BME280;49204;44.916;37.998;2022-10-31T03:55:19;101038.81;;;11.90;89.57
62895;BME280;49204;44.916;37.998;2022-10-31T03:58:05;101038.37;;;11.89;89.57
62895;BME280;49204;44.916;37.998;2022-10-31T04:00:30;101029.60;;;11.89;89.57
62895;BME280;49204;44.916;37.998;2022-10-31T04:03:01;101024.30;;;11.90;89.61
62895;BME280;49204;44.916;37.998;2022-10-31T04:05:30;101021.61;;;11.92;89.63
62895;BME280;49204;44.916;37.998;2022-10-31T04:08:00;101021.02;;;11.95;89.63
62895;BME280;49204;44.916;37.998;2022-10-31T04:10:30;101031.44;;;11.98;89.68
62895;BME280;49204;44.916;37.998;2022-10-31T04:13:05;101029.59;;;12.01;89.68
62895;BME280;49204;44.916;37.998;2022-10-31T04:15:36;101030.41;;;12.03;89.51
62895;BME280;49204;44.916;37.998;2022-10-31T04:18:06;101040.45;;;12.05;89.81
62895;BME280;49204;44.916;37.998;2022-10-31T04:20:37;101042.94;;;12.08;89.69
62895;BME280;49204;44.916;37.998;2022-10-31T04:23:08;101045.20;;;12.07;89.36
62895;BME280;49204;44.916;37.998;2022-10-31T04:25:34;101046.11;;;12.06;89.25
62895;BME280;49204;44.916;37.998;2022-10-31T04:28:02;101043.09;;;12.05;89.21
62895;BME280;49204;44.916;37.998;2022-10-31T04:30:30;101035.95;;;12.07;89.16
62895;BME280;49204;44.916;37.998;2022-10-31T04:32:58;101042.14;;;12.06;89.22
62895;BME280;49204;44.916;37.998;2022-10-31T04:35:26;101040.03;;;12.04;89.25
62895;BME280;49204;44.916;37.998;2022-10-31T04:37:54;101041.35;;;12.04;89.26
62895;BME280;49204;44.916;37.998;2022-10-31T04:40:22;101044.26;;;12.08;89.22
62895;BME280;49204;44.916;37.998;2022-10-31T04:43:08;101034.11;;;12.09;89.14
62895;BME280;49204;44.916;37.998;2022-10-31T04:45:37;101043.87;;;12.07;89.07
62895;BME280;49204;44.916;37.998;2022-10-31T04:48:05;101038.19;;;12.06;89.19
62895;BME280;49204;44.916;37.998;2022-10-31T04:50:34;101028.20;;;12.14;89.25
62895;BME280;49204;44.916;37.998;2022-10-31T04:53:01;101029.58;;;12.23;89.40
62895;BME280;49204;44.916;37.998;2022-10-31T04:55:31;101035.62;;;12.36;89.34
62895;BME280;49204;44.916;37.998;2022-10-31T04:58:06;101042.88;;;12.52;89.12
62895;BME280;49204;44.916;37.998;2022-10-31T05:00:34;101034.98;;;12.62;89.02
62895;BME280;49204;44.916;37.998;2022-10-31T05:03:02;101031.16;;;12.69;88.78
62895;BME280;49204;44.916;37.998;2022-10-31T05:05:31;101026.91;;;12.75;88.60
62895;BME280;49204;44.916;37.998;2022-10-31T05:08:01;101036.83;;;12.81;88.58
62895;BME280;49204;44.916;37.998;2022-10-31T05:10:30;101032.84;;;12.91;88.67
62895;BME280;49204;44.916;37.998;2022-10-31T05:13:00;101035.01;;;13.02;88.58
62895;BME280;49204;44.916;37.998;2022-10-31T05:15:36;101026.47;;;13.16;88.54
62895;BME280;49204;44.916;37.998;2022-10-31T05:18:22;101032.91;;;13.29;88.18
62895;BME280;49204;44.916;37.998;2022-10-31T05:20:51;101037.62;;;13.43;87.77
62895;BME280;49204;44.916;37.998;2022-10-31T05:23:30;101038.71;;;13.47;87.43
62895;BME280;49204;44.916;37.998;2022-10-31T05:25:59;101040.69;;;13.53;87.17
62895;BME280;49204;44.916;37.998;2022-10-31T05:28:27;101037.82;;;13.76;86.76
62895;BME280;49204;44.916;37.998;2022-10-31T05:30:55;101042.70;;;14.03;85.87
62895;BME280;49204;44.916;37.998;2022-10-31T05:33:22;101048.22;;;14.52;84.84
62895;BME280;49204;44.916;37.998;2022-10-31T05:36:04;101043.08;;;15.01;83.58
62895;BME280;49204;44.916;37.998;2022-10-31T05:38:34;101050.26;;;15.49;83.42
62895;BME280;49204;44.916;37.998;2022-10-31T05:41:03;101036.45;;;15.75;82.35
62895;BME280;49204;44.916;37.998;2022-10-31T05:43:32;101027.28;;;16.04;80.70
62895;BME280;49204;44.916;37.998;2022-10-31T05:46:01;101032.44;;;16.37;79.43
62895;BME280;49204;44.916;37.998;2022-10-31T05:48:40;101029.55;;;16.49;78.42
62895;BME280;49204;44.916;37.998;2022-10-31T05:51:09;101027.09;;;16.98;78.12
62895;BME280;49204;44.916;37.998;2022-10-31T05:53:37;101034.02;;;17.51;76.30
62895;BME280;49204;44.916;37.998;2022-10-31T05:56:05;101035.55;;;17.97;74.82
62895;BME280;49204;44.916;37.998;2022-10-31T05:58:33;101014.33;;;18.68;73.60
62895;BME280;49204;44.916;37.998;2022-10-31T06:01:03;101026.69;;;19.27;71.01
62895;BME280;49204;44.916;37.998;2022-10-31T06:03:32;101022.13;;;19.35;70.57
62895;BME280;49204;44.916;37.998;2022-10-31T06:06:02;101027.55;;;19.15;70.25
62895;BME280;49204;44.916;37.998;2022-10-31T06:08:34;101020.36;;;18.77;69.40
62895;BME280;49204;44.916;37.998;2022-10-31T06:11:03;101026.33;;;18.68;69.90
62895;BME280;49204;44.916;37.998;2022-10-31T06:13:49;101029.55;;;18.73;69.32
62895;BME280;49204;44.916;37.998;2022-10-31T06:16:25;101016.36;;;18.77;68.43
62895;BME280;49204;44.916;37.998;2022-10-31T06:18:54;101028.05;;;18.89;67.21
62895;BME280;49204;44.916;37.998;2022-10-31T06:21:22;101026.47;;;19.18;66.55
62895;BME280;49204;44.916;37.998;2022-10-31T06:23:50;101026.26;;;19.52;65.37
62895;BME280;49204;44.916;37.998;2022-10-31T06:26:26;101030.72;;;19.46;64.07
62895;BME280;49204;44.916;37.998;2022-10-31T06:28:54;101040.73;;;19.24;64.57
62895;BME280;49204;44.916;37.998;2022-10-31T06:31:26;101038.03;;;18.73;64.33
62895;BME280;49204;44.916;37.998;2022-10-31T06:33:55;101039.06;;;18.44;64.69
62895;BME280;49204;44.916;37.998;2022-10-31T06:36:23;101031.41;;;18.85;63.91
62895;BME280;49204;44.916;37.998;2022-10-31T06:38:52;101017.00;;;19.82;61.73
62895;BME280;49204;44.916;37.998;2022-10-31T06:41:22;101030.41;;;20.82;60.43
62895;BME280;49204;44.916;37.998;2022-10-31T06:43:50;101031.78;;;21.62;58.88
62895;BME280;49204;44.916;37.998;2022-10-31T06:46:28;101027.81;;;21.88;58.66
62895;BME280;49204;44.916;37.998;2022-10-31T06:48:58;101021.97;;;22.21;53.88
62895;BME280;49204;44.916;37.998;2022-10-31T06:51:30;101023.80;;;22.15;54.02
62895;BME280;49204;44.916;37.998;2022-10-31T06:53:58;101033.95;;;22.65;54.54
62895;BME280;49204;44.916;37.998;2022-10-31T06:56:26;101030.24;;;23.13;54.72
62895;BME280;49204;44.916;37.998;2022-10-31T06:58:55;101028.47;;;24.09;54.13
62895;BME280;49204;44.916;37.998;2022-10-31T07:01:27;101029.95;;;24.56;51.28
62895;BME280;49204;44.916;37.998;2022-10-31T07:03:55;101031.14;;;24.91;50.98
62895;BME280;49204;44.916;37.998;2022-10-31T07:06:23;101036.24;;;25.18;50.46
62895;BME280;49204;44.916;37.998;2022-10-31T07:08:51;101031.38;;;25.59;50.01
62895;BME280;49204;44.916;37.998;2022-10-31T07:11:19;101040.72;;;25.78;49.00
62895;BME280;49204;44.916;37.998;2022-10-31T07:13:48;101026.14;;;25.89;47.93
62895;BME280;49204;44.916;37.998;2022-10-31T07:16:15;101037.72;;;24.40;48.33
62895;BME280;49204;44.916;37.998;2022-10-31T07:18:44;101030.86;;;24.02;49.08
62895;BME280;49204;44.916;37.998;2022-10-31T07:21:13;101031.30;;;23.98;47.58
62895;BME280;49204;44.916;37.998;2022-10-31T07:23:41;101025.27;;;24.39;48.62
62895;BME280;49204;44.916;37.998;2022-10-31T07:26:14;101027.69;;;24.22;48.12
62895;BME280;49204;44.916;37.998;2022-10-31T07:28:45;101020.59;;;24.41;48.21
62895;BME280;49204;44.916;37.998;2022-10-31T07:31:14;101025.68;;;24.05;47.68
62895;BME280;49204;44.916;37.998;2022-10-31T07:33:42;101026.27;;;24.91;46.53
62895;BME280;49204;44.916;37.998;2022-10-31T07:36:29;101025.70;;;25.62;44.80
62895;BME280;49204;44.916;37.998;2022-10-31T07:38:59;101022.55;;;25.98;43.37
62895;BME280;49204;44.916;37.998;2022-10-31T07:41:29;101009.87;;;26.31;41.91
62895;BME280;49204;44.916;37.998;2022-10-31T07:43:57;101005.05;;;26.43;40.19
62895;BME280;49204;44.916;37.998;2022-10-31T07:46:43;101001.64;;;26.36;38.73
62895;BME280;49204;44.916;37.998;2022-10-31T07:49:29;101005.69;;;26.58;38.08
62895;BME280;49204;44.916;37.998;2022-10-31T07:51:58;101004.69;;;25.24;39.12
62895;BME280;49204;44.916;37.998;2022-10-31T07:54:30;100994.86;;;25.09;39.24
62895;BME280;49204;44.916;37.998;2022-10-31T07:56:58;100995.95;;;24.36;39.28
62895;BME280;49204;44.916;37.998;2022-10-31T07:59:26;101010.33;;;24.40;40.72
62895;BME280;49204;44.916;37.998;2022-10-31T08:01:54;101008.28;;;24.38;41.08
62895;BME280;49204;44.916;37.998;2022-10-31T08:04:32;101009.61;;;24.48;39.70
62895;BME280;49204;44.916;37.998;2022-10-31T08:07:18;101013.01;;;24.60;40.29
62895;BME280;49204;44.916;37.998;2022-10-31T08:09:48;101002.48;;;24.04;40.69
62895;BME280;49204;44.916;37.998;2022-10-31T08:12:21;101001.70;;;24.17;40.03
62895;BME280;49204;44.916;37.998;2022-10-31T08:14:49;101003.89;;;24.08;41.21
62895;BME280;49204;44.916;37.998;2022-10-31T08:17:18;101001.36;;;25.16;40.09
62895;BME280;49204;44.916;37.998;2022-10-31T08:19:50;101003.55;;;26.44;39.69
62895;BME280;49204;44.916;37.998;2022-10-31T08:22:20;100995.52;;;27.01;38.23
62895;BME280;49204;44.916;37.998;2022-10-31T08:24:48;100994.36;;;26.77;39.13
62895;BME280;49204;44.916;37.998;2022-10-31T08:27:16;100990.58;;;26.66;38.34
62895;BME280;49204;44.916;37.998;2022-10-31T08:29:45;100986.69;;;26.46;39.64
62895;BME280;49204;44.916;37.998;2022-10-31T08:32:13;100989.11;;;25.08;38.96
62895;BME280;49204;44.916;37.998;2022-10-31T08:35:00;100994.92;;;23.78;41.10
62895;BME280;49204;44.916;37.998;2022-10-31T08:37:51;100989.29;;;22.69;42.33
62895;BME280;49204;44.916;37.998;2022-10-31T08:40:16;100998.29;;;21.62;43.38
62895;BME280;49204;44.916;37.998;2022-10-31T08:42:44;100994.78;;;20.99;43.86
62895;BME280;49204;44.916;37.998;2022-10-31T08:45:11;100993.92;;;20.40;44.94
62895;BME280;49204;44.916;37.998;2022-10-31T08:47:40;100997.13;;;19.92;45.66
62895;BME280;49204;44.916;37.998;2022-10-31T08:50:08;100991.50;;;20.08;45.48
62895;BME280;49204;44.916;37.998;2022-10-31T08:52:36;100992.22;;;20.80;44.73
62895;BME280;49204;44.916;37.998;2022-10-31T08:55:04;100989.31;;;22.16;42.99
62895;BME280;49204;44.916;37.998;2022-10-31T08:57:34;100992.64;;;23.99;39.83
62895;BME280;49204;44.916;37.998;2022-10-31T09:00:02;100982.71;;;24.95;38.24
62895;BME280;49204;44.916;37.998;2022-10-31T09:02:47;100984.75;;;25.49;37.37
62895;BME280;49204;44.916;37.998;2022-10-31T09:05:15;100986.81;;;26.18;36.94
62895;BME280;49204;44.916;37.998;2022-10-31T09:07:43;100979.13;;;26.72;35.94
62895;BME280;49204;44.916;37.998;2022-10-31T09:10:11;100980.11;;;27.31;35.03
62895;BME280;49204;44.916;37.998;2022-10-31T09:12:39;100968.63;;;27.97;34.06
62895;BME280;49204;44.916;37.998;2022-10-31T09:15:24;100969.81;;;28.19;33.99
62895;BME280;49204;44.916;37.998;2022-10-31T09:17:54;100963.39;;;27.91;32.96
62895;BME280;49204;44.916;37.998;2022-10-31T09:20:30;100960.34;;;27.98;32.70
62895;BME280;49204;44.916;37.998;2022-10-31T09:23:04;100974.20;;;28.20;33.68
62895;BME280;49204;44.916;37.998;2022-10-31T09:25:28;100966.91;;;28.61;33.47
62895;BME280;49204;44.916;37.998;2022-10-31T09:28:08;100963.61;;;28.86;32.67
62895;BME280;49204;44.916;37.998;2022-10-31T09:30:37;100956.84;;;28.86;33.38
62895;BME280;49204;44.916;37.998;2022-10-31T09:33:06;100951.33;;;27.69;35.25
62895;BME280;49204;44.916;37.998;2022-10-31T09:35:35;100955.45;;;27.26;35.71
62895;BME280;49204;44.916;37.998;2022-10-31T09:38:04;100949.39;;;27.41;35.22
62895;BME280;49204;44.916;37.998;2022-10-31T09:40:34;100953.31;;;27.46;34.92
62895;BME280;49204;44.916;37.998;2022-10-31T09:43:09;100946.63;;;27.91;33.83
62895;BME280;49204;44.916;37.998;2022-10-31T09:45:43;100944.72;;;28.70;33.10
62895;BME280;49204;44.916;37.998;2022-10-31T09:51:03;100935.23;;;28.49;32.92
62895;BME280;49204;44.916;37.998;2022-10-31T09:56:09;100932.16;;;28.73;31.78
62895;BME280;49204;44.916;37.998;2022-10-31T09:58:33;100939.45;;;29.12;31.67
62895;BME280;49204;44.916;37.998;2022-10-31T10:01:03;100929.34;;;29.14;30.38
62895;BME280;49204;44.916;37.998;2022-10-31T10:03:39;100934.59;;;28.56;30.90
62895;BME280;49204;44.916;37.998;2022-10-31T10:06:11;100931.58;;;28.14;31.77
62895;BME280;49204;44.916;37.998;2022-10-31T10:08:39;100931.06;;;28.26;31.41
62895;BME280;49204;44.916;37.998;2022-10-31T10:11:31;100929.69;;;28.30;31.39
62895;BME280;49204;44.916;37.998;2022-10-31T10:14:11;100938.66;;;28.39;31.43
62895;BME280;49204;44.916;37.998;2022-10-31T10:16:44;100925.44;;;27.58;31.79
62895;BME280;49204;44.916;37.998;2022-10-31T10:27:11;100937.53;;;25.17;33.96
62895;BME280;49204;44.916;37.998;2022-10-31T10:29:44;100930.94;;;25.15;34.05
62895;BME280;49204;44.916;37.998;2022-10-31T10:32:17;100932.62;;;25.26;34.13
62895;BME280;49204;44.916;37.998;2022-10-31T10:34:41;100926.03;;;24.40;34.48
62895;BME280;49204;44.916;37.998;2022-10-31T10:37:14;100902.19;;;23.88;34.77
62895;BME280;49204;44.916;37.998;2022-10-31T10:39:38;100915.50;;;24.33;34.17
62895;BME280;49204;44.916;37.998;2022-10-31T10:42:09;100915.47;;;24.90;33.06
62895;BME280;49204;44.916;37.998;2022-10-31T10:44:54;100915.83;;;25.32;33.21
62895;BME280;49204;44.916;37.998;2022-10-31T10:47:46;100895.84;;;25.35;32.39
62895;BME280;49204;44.916;37.998;2022-10-31T10:50:14;100910.77;;;25.29;32.89
62895;BME280;49204;44.916;37.998;2022-10-31T10:52:53;100904.40;;;24.32;33.84
62895;BME280;49204;44.916;37.998;2022-10-31T10:58:03;100903.66;;;23.57;35.13
62895;BME280;49204;44.916;37.998;2022-10-31T11:00:34;100878.61;;;23.37;35.03
62895;BME280;49204;44.916;37.998;2022-10-31T11:03:01;100896.10;;;23.66;35.08
62895;BME280;49204;44.916;37.998;2022-10-31T11:05:43;100898.52;;;23.25;35.76
62895;BME280;49204;44.916;37.998;2022-10-31T11:08:11;100890.16;;;23.63;35.62
62895;BME280;49204;44.916;37.998;2022-10-31T11:10:40;100888.88;;;23.67;35.11
62895;BME280;49204;44.916;37.998;2022-10-31T11:15:51;100882.59;;;23.72;35.31
62895;BME280;49204;44.916;37.998;2022-10-31T11:18:20;100882.16;;;23.12;35.62
62895;BME280;49204;44.916;37.998;2022-10-31T11:20:50;100893.34;;;21.77;37.43
62895;BME280;49204;44.916;37.998;2022-10-31T11:23:18;100892.43;;;21.12;38.82
62895;BME280;49204;44.916;37.998;2022-10-31T11:26:05;100907.77;;;20.88;39.56
62895;BME280;49204;44.916;37.998;2022-10-31T11:28:18;100898.41;;;20.71;39.88
62895;BME280;49204;44.916;37.998;2022-10-31T11:30:47;100897.02;;;20.31;40.50
62895;BME280;49204;44.916;37.998;2022-10-31T11:33:29;100898.74;;;19.91;41.26
62895;BME280;49204;44.916;37.998;2022-10-31T11:35:57;100879.76;;;19.53;41.93
62895;BME280;49204;44.916;37.998;2022-10-31T11:38:43;100892.03;;;19.13;42.85
62895;BME280;49204;44.916;37.998;2022-10-31T11:41:04;100893.21;;;18.90;43.50
62895;BME280;49204;44.916;37.998;2022-10-31T11:43:27;100894.78;;;18.80;43.90
62895;BME280;49204;44.916;37.998;2022-10-31T11:45:55;100896.19;;;18.60;44.55
62895;BME280;49204;44.916;37.998;2022-10-31T11:48:23;100897.38;;;18.43;44.92
62895;BME280;49204;44.916;37.998;2022-10-31T11:50:55;100890.06;;;18.27;45.68
62895;BME280;49204;44.916;37.998;2022-10-31T11:53:26;100886.55;;;18.13;45.93
62895;BME280;49204;44.916;37.998;2022-10-31T11:58:41;100904.02;;;17.78;46.74
62895;BME280;49204;44.916;37.998;2022-10-31T12:01:30;100890.47;;;17.68;47.14
62895;BME280;49204;44.916;37.998;2022-10-31T12:06:30;100896.42;;;17.51;48.05
62895;BME280;49204;44.916;37.998;2022-10-31T12:08:57;100895.19;;;17.50;48.16
62895;BME280;49204;44.916;37.998;2022-10-31T12:11:48;100896.88;;;17.58;48.44
62895;BME280;49204;44.916;37.998;2022-10-31T12:16:48;100895.75;;;17.55;48.88
62895;BME280;49204;44.916;37.998;2022-10-31T12:22:08;100905.93;;;17.48;49.18
62895;BME280;49204;44.916;37.998;2022-10-31T12:24:48;100897.02;;;17.42;49.67
62895;BME280;49204;44.916;37.998;2022-10-31T12:35:13;100904.23;;;17.13;50.28
62895;BME280;49204;44.916;37.998;2022-10-31T12:37:43;100908.63;;;17.07;50.55
62895;BME280;49204;44.916;37.998;2022-10-31T12:42:58;100916.61;;;17.00;50.40
62895;BME280;49204;44.916;37.998;2022-10-31T12:48:21;100924.18;;;17.13;50.47
62895;BME280;49204;44.916;37.998;2022-10-31T12:50:50;100931.01;;;17.17;50.39
62895;BME280;49204;44.916;37.998;2022-10-31T12:56:07;100932.38;;;17.03;50.34
62895;BME280;49204;44.916;37.998;2022-10-31T12:58:40;100939.22;;;16.92;50.55
62895;BME280;49204;44.916;37.998;2022-10-31T13:01:14;100936.73;;;16.75;50.94
62895;BME280;49204;44.916;37.998;2022-10-31T13:03:48;100940.97;;;16.56;51.17
62895;BME280;49204;44.916;37.998;2022-10-31T13:06:19;100932.05;;;16.50;51.45
62895;BME280;49204;44.916;37.998;2022-10-31T13:08:50;100941.83;;;16.42;51.47
62895;BME280;49204;44.916;37.998;2022-10-31T13:11:25;100943.41;;;16.37;51.56
62895;BME280;49204;44.916;37.998;2022-10-31T13:14:53;100951.85;;;16.30;51.64
62895;BME280;49204;44.916;37.998;2022-10-31T13:16:33;100957.80;;;16.19;51.87
62895;BME280;49204;44.916;37.998;2022-10-31T13:19:07;100955.97;;;16.05;52.06
62895;BME280;49204;44.916;37.998;2022-10-31T13:21:37;100954.61;;;15.98;52.16
62895;BME280;49204;44.916;37.998;2022-10-31T13:24:07;100953.73;;;15.90;52.22
62895;BME280;49204;44.916;37.998;2022-10-31T13:26:38;100962.16;;;15.82;52.30
62895;BME280;49204;44.916;37.998;2022-10-31T13:31:42;100973.43;;;15.70;52.46
62895;BME280;49204;44.916;37.998;2022-10-31T13:36:54;100981.02;;;15.53;52.63
62895;BME280;49204;44.916;37.998;2022-10-31T13:39:33;100986.77;;;15.46;52.71
62895;BME280;49204;44.916;37.998;2022-10-31T13:42:04;100986.92;;;15.42;52.80
62895;BME280;49204;44.916;37.998;2022-10-31T13:44:29;100997.70;;;15.39;52.89
62895;BME280;49204;44.916;37.998;2022-10-31T13:46:57;100999.87;;;15.40;52.98
62895;BME280;49204;44.916;37.998;2022-10-31T13:54:41;101017.62;;;15.31;53.35
62895;BME280;49204;44.916;37.998;2022-10-31T13:57:19;101019.84;;;15.22;53.62
62895;BME280;49204;44.916;37.998;2022-10-31T14:00:00;101027.11;;;15.19;53.81
62895;BME280;49204;44.916;37.998;2022-10-31T14:02:31;101036.33;;;15.12;54.06
62895;BME280;49204;44.916;37.998;2022-10-31T14:05:06;101037.59;;;15.04;54.36
62895;BME280;49204;44.916;37.998;2022-10-31T14:07:34;101033.55;;;14.97;54.68
62895;BME280;49204;44.916;37.998;2022-10-31T14:10:04;101044.63;;;14.88;54.61
62895;BME280;49204;44.916;37.998;2022-10-31T14:12:39;101055.02;;;14.75;54.83
62895;BME280;49204;44.916;37.998;2022-10-31T14:15:15;101058.20;;;14.56;55.14
62895;BME280;49204;44.916;37.998;2022-10-31T14:22:44;101081.50;;;14.04;56.38
62895;BME280;49204;44.916;37.998;2022-10-31T14:25:31;101087.61;;;13.96;57.07